sensor_id;sensor_type;location;lat;lon;timestamp;P1;durP1;ratioP1;P2;durP2;ratioP2
12968;SDS011;6549;53.128;8.182;2023-07-13T00:02:37;3.95;;;3.28;;
12968;SDS011;6549;53.128;8.182;2023-07-13T00:05:37;4.60;;;3.30;;
12968;SDS011;6549;53.128;8.182;2023-07-13T00:08:38;6.72;;;3.50;;
12968;SDS011;6549;53.128;8.182;2023-07-13T00:11:39;5.40;;;3.75;;
12968;SDS011;6549;53.128;8.182;2023-07-13T00:14:40;4.25;;;2.90;;
12968;SDS011;6549;53.128;8.182;2023-07-13T00:17:40;4.55;;;3.35;;
12968;SDS011;6549;53.128;8.182;2023-07-13T00:20:41;5.40;;;3.70;;
12968;SDS011;6549;53.128;8.182;2023-07-13T00:23:41;3.83;;;3.05;;
12968;SDS011;6549;53.128;8.182;2023-07-13T00:26:42;6.32;;;3.90;;
12968;SDS011;6549;53.128;8.182;2023-07-13T00:29:45;6.22;;;5.18;;
12968;SDS011;6549;53.128;8.182;2023-07-13T00:32:46;6.97;;;4.65;;
12968;SDS011;6549;53.128;8.182;2023-07-13T00:35:46;7.38;;;4.55;;
12968;SDS011;6549;53.128;8.182;2023-07-13T00:38:47;7.10;;;4.35;;
12968;SDS011;6549;53.128;8.182;2023-07-13T00:41:47;9.45;;;4.45;;
12968;SDS011;6549;53.128;8.182;2023-07-13T00:45:00;8.65;;;4.30;;
12968;SDS011;6549;53.128;8.182;2023-07-13T00:48:02;10.32;;;4.63;;
12968;SDS011;6549;53.128;8.182;2023-07-13T00:51:02;7.63;;;4.15;;
12968;SDS011;6549;53.128;8.182;2023-07-13T00:54:04;6.53;;;4.00;;
12968;SDS011;6549;53.128;8.182;2023-07-13T00:57:08;5.55;;;3.78;;
12968;SDS011;6549;53.128;8.182;2023-07-13T01:00:11;9.60;;;4.63;;
12968;SDS011;6549;53.128;8.182;2023-07-13T01:03:12;6.43;;;3.78;;
12968;SDS011;6549;53.128;8.182;2023-07-13T01:06:12;7.88;;;3.45;;
12968;SDS011;6549;53.128;8.182;2023-07-13T01:09:13;5.57;;;3.60;;
12968;SDS011;6549;53.128;8.182;2023-07-13T01:12:14;5.10;;;3.45;;
12968;SDS011;6549;53.128;8.182;2023-07-13T01:18:35;6.82;;;3.60;;
12968;SDS011;6549;53.128;8.182;2023-07-13T01:21:36;7.43;;;3.75;;
12968;SDS011;6549;53.128;8.182;2023-07-13T01:24:38;5.43;;;3.47;;
12968;SDS011;6549;53.128;8.182;2023-07-13T01:27:40;7.70;;;4.22;;
12968;SDS011;6549;53.128;8.182;2023-07-13T01:30:41;5.88;;;3.33;;
12968;SDS011;6549;53.128;8.182;2023-07-13T01:33:45;10.02;;;3.85;;
12968;SDS011;6549;53.128;8.182;2023-07-13T01:36:45;8.40;;;3.53;;
12968;SDS011;6549;53.128;8.182;2023-07-13T01:39:46;6.82;;;3.60;;
12968;SDS011;6549;53.128;8.182;2023-07-13T01:42:46;11.13;;;3.95;;
12968;SDS011;6549;53.128;8.182;2023-07-13T01:45:47;7.15;;;4.05;;
12968;SDS011;6549;53.128;8.182;2023-07-13T01:48:47;5.95;;;3.60;;
12968;SDS011;6549;53.128;8.182;2023-07-13T01:51:47;7.32;;;3.50;;
12968;SDS011;6549;53.128;8.182;2023-07-13T01:54:48;6.65;;;3.70;;
12968;SDS011;6549;53.128;8.182;2023-07-13T01:57:48;7.82;;;3.65;;
12968;SDS011;6549;53.128;8.182;2023-07-13T02:00:49;4.88;;;3.00;;
12968;SDS011;6549;53.128;8.182;2023-07-13T02:03:51;6.88;;;3.72;;
12968;SDS011;6549;53.128;8.182;2023-07-13T02:06:51;11.50;;;4.85;;
12968;SDS011;6549;53.128;8.182;2023-07-13T02:09:52;9.77;;;4.82;;
12968;SDS011;6549;53.128;8.182;2023-07-13T02:12:52;5.93;;;4.35;;
12968;SDS011;6549;53.128;8.182;2023-07-13T02:15:52;7.63;;;4.07;;
12968;SDS011;6549;53.128;8.182;2023-07-13T02:18:53;5.55;;;3.83;;
12968;SDS011;6549;53.128;8.182;2023-07-13T02:21:53;10.35;;;4.85;;
12968;SDS011;6549;53.128;8.182;2023-07-13T02:24:53;6.85;;;4.18;;
12968;SDS011;6549;53.128;8.182;2023-07-13T02:27:54;9.77;;;4.63;;
12968;SDS011;6549;53.128;8.182;2023-07-13T02:30:54;9.32;;;3.90;;
12968;SDS011;6549;53.128;8.182;2023-07-13T02:33:54;6.32;;;3.35;;
12968;SDS011;6549;53.128;8.182;2023-07-13T02:36:55;6.63;;;4.40;;
12968;SDS011;6549;53.128;8.182;2023-07-13T02:39:55;8.88;;;5.28;;
12968;SDS011;6549;53.128;8.182;2023-07-13T02:42:55;13.38;;;5.38;;
12968;SDS011;6549;53.128;8.182;2023-07-13T02:45:56;8.48;;;4.68;;
12968;SDS011;6549;53.128;8.182;2023-07-13T02:48:56;12.75;;;5.00;;
12968;SDS011;6549;53.128;8.182;2023-07-13T02:51:57;7.93;;;4.38;;
12968;SDS011;6549;53.128;8.182;2023-07-13T02:54:57;8.38;;;4.55;;
12968;SDS011;6549;53.128;8.182;2023-07-13T02:57:57;13.57;;;4.40;;
12968;SDS011;6549;53.128;8.182;2023-07-13T03:00:58;9.38;;;4.65;;
12968;SDS011;6549;53.128;8.182;2023-07-13T03:03:58;10.07;;;4.38;;
12968;SDS011;6549;53.128;8.182;2023-07-13T03:06:58;10.57;;;4.72;;
12968;SDS011;6549;53.128;8.182;2023-07-13T03:09:59;8.32;;;4.20;;
12968;SDS011;6549;53.128;8.182;2023-07-13T03:12:59;11.50;;;4.45;;
12968;SDS011;6549;53.128;8.182;2023-07-13T03:15:59;9.15;;;3.72;;
12968;SDS011;6549;53.128;8.182;2023-07-13T03:19:00;9.65;;;4.75;;
12968;SDS011;6549;53.128;8.182;2023-07-13T03:22:00;12.05;;;4.50;;
12968;SDS011;6549;53.128;8.182;2023-07-13T03:25:00;9.10;;;3.78;;
12968;SDS011;6549;53.128;8.182;2023-07-13T03:28:01;8.75;;;4.07;;
12968;SDS011;6549;53.128;8.182;2023-07-13T03:31:07;10.40;;;3.92;;
12968;SDS011;6549;53.128;8.182;2023-07-13T03:34:09;9.70;;;4.07;;
12968;SDS011;6549;53.128;8.182;2023-07-13T03:37:10;8.32;;;3.95;;
12968;SDS011;6549;53.128;8.182;2023-07-13T03:40:10;8.50;;;4.07;;
12968;SDS011;6549;53.128;8.182;2023-07-13T03:43:11;9.85;;;3.92;;
12968;SDS011;6549;53.128;8.182;2023-07-13T03:46:12;9.95;;;3.80;;
12968;SDS011;6549;53.128;8.182;2023-07-13T03:49:12;11.15;;;3.80;;
12968;SDS011;6549;53.128;8.182;2023-07-13T03:52:12;8.35;;;3.95;;
12968;SDS011;6549;53.128;8.182;2023-07-13T03:55:13;11.23;;;4.22;;
12968;SDS011;6549;53.128;8.182;2023-07-13T03:58:24;8.30;;;3.42;;
12968;SDS011;6549;53.128;8.182;2023-07-13T04:01:27;9.95;;;3.80;;
12968;SDS011;6549;53.128;8.182;2023-07-13T04:04:27;9.43;;;3.95;;
12968;SDS011;6549;53.128;8.182;2023-07-13T04:07:27;14.32;;;4.40;;
12968;SDS011;6549;53.128;8.182;2023-07-13T04:10:27;12.73;;;4.40;;
12968;SDS011;6549;53.128;8.182;2023-07-13T04:13:28;13.30;;;3.75;;
12968;SDS011;6549;53.128;8.182;2023-07-13T04:16:28;10.07;;;3.60;;
12968;SDS011;6549;53.128;8.182;2023-07-13T04:19:29;8.80;;;3.60;;
12968;SDS011;6549;53.128;8.182;2023-07-13T04:22:29;12.38;;;3.70;;
12968;SDS011;6549;53.128;8.182;2023-07-13T04:25:29;11.57;;;3.80;;
12968;SDS011;6549;53.128;8.182;2023-07-13T04:28:30;13.73;;;3.83;;
12968;SDS011;6549;53.128;8.182;2023-07-13T04:31:31;8.50;;;3.30;;
12968;SDS011;6549;53.128;8.182;2023-07-13T04:34:31;9.63;;;3.35;;
12968;SDS011;6549;53.128;8.182;2023-07-13T04:37:31;8.57;;;3.15;;
12968;SDS011;6549;53.128;8.182;2023-07-13T04:40:32;7.97;;;3.20;;
12968;SDS011;6549;53.128;8.182;2023-07-13T04:43:32;13.38;;;3.30;;
12968;SDS011;6549;53.128;8.182;2023-07-13T04:46:33;10.77;;;3.25;;
12968;SDS011;6549;53.128;8.182;2023-07-13T04:49:33;8.95;;;3.75;;
12968;SDS011;6549;53.128;8.182;2023-07-13T04:52:34;10.55;;;3.40;;
12968;SDS011;6549;53.128;8.182;2023-07-13T04:55:34;18.40;;;3.92;;
12968;SDS011;6549;53.128;8.182;2023-07-13T04:58:34;9.43;;;3.40;;
12968;SDS011;6549;53.128;8.182;2023-07-13T05:01:35;11.57;;;4.25;;
12968;SDS011;6549;53.128;8.182;2023-07-13T05:04:35;7.63;;;3.35;;
12968;SDS011;6549;53.128;8.182;2023-07-13T05:07:35;11.48;;;3.20;;
12968;SDS011;6549;53.128;8.182;2023-07-13T05:10:36;14.40;;;3.90;;
12968;SDS011;6549;53.128;8.182;2023-07-13T05:13:36;9.50;;;4.00;;
12968;SDS011;6549;53.128;8.182;2023-07-13T05:16:36;7.18;;;3.53;;
12968;SDS011;6549;53.128;8.182;2023-07-13T05:19:37;11.32;;;3.90;;
12968;SDS011;6549;53.128;8.182;2023-07-13T05:22:37;14.88;;;4.20;;
12968;SDS011;6549;53.128;8.182;2023-07-13T05:25:37;9.88;;;3.45;;
12968;SDS011;6549;53.128;8.182;2023-07-13T05:28:38;8.98;;;3.25;;
12968;SDS011;6549;53.128;8.182;2023-07-13T05:31:39;10.13;;;3.53;;
12968;SDS011;6549;53.128;8.182;2023-07-13T05:34:39;11.43;;;3.53;;
12968;SDS011;6549;53.128;8.182;2023-07-13T05:37:40;6.68;;;3.30;;
12968;SDS011;6549;53.128;8.182;2023-07-13T05:40:42;9.38;;;3.67;;
12968;SDS011;6549;53.128;8.182;2023-07-13T05:43:43;14.40;;;3.78;;
12968;SDS011;6549;53.128;8.182;2023-07-13T05:46:44;11.77;;;3.38;;
12968;SDS011;6549;53.128;8.182;2023-07-13T05:49:44;9.60;;;4.22;;
12968;SDS011;6549;53.128;8.182;2023-07-13T05:52:44;10.30;;;3.65;;
12968;SDS011;6549;53.128;8.182;2023-07-13T05:55:45;10.02;;;3.58;;
12968;SDS011;6549;53.128;8.182;2023-07-13T05:58:50;10.75;;;3.38;;
12968;SDS011;6549;53.128;8.182;2023-07-13T06:01:51;11.15;;;4.32;;
12968;SDS011;6549;53.128;8.182;2023-07-13T06:04:52;9.85;;;3.60;;
12968;SDS011;6549;53.128;8.182;2023-07-13T06:07:52;11.52;;;4.07;;
12968;SDS011;6549;53.128;8.182;2023-07-13T06:10:52;11.13;;;3.83;;
12968;SDS011;6549;53.128;8.182;2023-07-13T06:13:53;12.23;;;3.75;;
12968;SDS011;6549;53.128;8.182;2023-07-13T06:16:54;9.35;;;3.92;;
12968;SDS011;6549;53.128;8.182;2023-07-13T06:19:54;11.77;;;3.80;;
12968;SDS011;6549;53.128;8.182;2023-07-13T06:22:55;9.30;;;4.00;;
12968;SDS011;6549;53.128;8.182;2023-07-13T06:25:56;10.48;;;3.88;;
12968;SDS011;6549;53.128;8.182;2023-07-13T06:28:56;12.10;;;4.40;;
12968;SDS011;6549;53.128;8.182;2023-07-13T06:31:56;8.00;;;3.40;;
12968;SDS011;6549;53.128;8.182;2023-07-13T06:34:57;9.38;;;3.92;;
12968;SDS011;6549;53.128;8.182;2023-07-13T06:37:57;11.57;;;3.75;;
12968;SDS011;6549;53.128;8.182;2023-07-13T06:40:58;12.60;;;4.03;;
12968;SDS011;6549;53.128;8.182;2023-07-13T06:43:58;12.10;;;4.00;;
12968;SDS011;6549;53.128;8.182;2023-07-13T06:46:59;13.55;;;4.15;;
12968;SDS011;6549;53.128;8.182;2023-07-13T06:49:59;12.23;;;3.75;;
12968;SDS011;6549;53.128;8.182;2023-07-13T06:53:00;11.65;;;4.25;;
12968;SDS011;6549;53.128;8.182;2023-07-13T06:56:00;11.90;;;4.13;;
12968;SDS011;6549;53.128;8.182;2023-07-13T06:59:01;7.35;;;3.40;;
12968;SDS011;6549;53.128;8.182;2023-07-13T07:02:01;13.23;;;3.90;;
12968;SDS011;6549;53.128;8.182;2023-07-13T07:05:02;12.50;;;4.10;;
12968;SDS011;6549;53.128;8.182;2023-07-13T07:08:02;12.70;;;3.90;;
12968;SDS011;6549;53.128;8.182;2023-07-13T07:11:02;9.40;;;3.80;;
12968;SDS011;6549;53.128;8.182;2023-07-13T07:14:03;7.50;;;3.28;;
12968;SDS011;6549;53.128;8.182;2023-07-13T07:17:03;9.48;;;3.95;;
12968;SDS011;6549;53.128;8.182;2023-07-13T07:20:04;11.00;;;3.70;;
12968;SDS011;6549;53.128;8.182;2023-07-13T07:23:05;9.85;;;3.22;;
12968;SDS011;6549;53.128;8.182;2023-07-13T07:26:05;9.85;;;3.97;;
12968;SDS011;6549;53.128;8.182;2023-07-13T07:29:08;8.55;;;3.30;;
12968;SDS011;6549;53.128;8.182;2023-07-13T07:32:09;11.60;;;4.07;;
12968;SDS011;6549;53.128;8.182;2023-07-13T07:35:09;8.95;;;3.25;;
12968;SDS011;6549;53.128;8.182;2023-07-13T07:38:09;11.05;;;3.97;;
12968;SDS011;6549;53.128;8.182;2023-07-13T07:41:10;11.55;;;3.90;;
12968;SDS011;6549;53.128;8.182;2023-07-13T07:44:10;10.95;;;3.85;;
12968;SDS011;6549;53.128;8.182;2023-07-13T07:47:11;9.88;;;3.30;;
12968;SDS011;6549;53.128;8.182;2023-07-13T07:50:11;8.23;;;3.30;;
12968;SDS011;6549;53.128;8.182;2023-07-13T07:53:11;10.30;;;3.70;;
12968;SDS011;6549;53.128;8.182;2023-07-13T07:56:12;14.07;;;3.60;;
12968;SDS011;6549;53.128;8.182;2023-07-13T07:59:13;11.20;;;2.92;;
12968;SDS011;6549;53.128;8.182;2023-07-13T08:02:13;7.82;;;3.25;;
12968;SDS011;6549;53.128;8.182;2023-07-13T08:05:14;9.57;;;3.00;;
12968;SDS011;6549;53.128;8.182;2023-07-13T08:08:14;8.55;;;3.45;;
12968;SDS011;6549;53.128;8.182;2023-07-13T08:11:15;10.23;;;3.50;;
12968;SDS011;6549;53.128;8.182;2023-07-13T08:14:16;5.25;;;2.72;;
12968;SDS011;6549;53.128;8.182;2023-07-13T08:17:16;6.93;;;3.05;;
12968;SDS011;6549;53.128;8.182;2023-07-13T08:20:17;6.90;;;3.15;;
12968;SDS011;6549;53.128;8.182;2023-07-13T08:23:17;6.40;;;2.63;;
12968;SDS011;6549;53.128;8.182;2023-07-13T08:26:18;6.95;;;2.67;;
12968;SDS011;6549;53.128;8.182;2023-07-13T08:29:18;9.40;;;2.90;;
12968;SDS011;6549;53.128;8.182;2023-07-13T08:32:19;7.30;;;2.83;;
12968;SDS011;6549;53.128;8.182;2023-07-13T08:35:21;7.57;;;2.60;;
12968;SDS011;6549;53.128;8.182;2023-07-13T08:38:21;6.95;;;2.70;;
12968;SDS011;6549;53.128;8.182;2023-07-13T08:41:22;7.07;;;2.85;;
12968;SDS011;6549;53.128;8.182;2023-07-13T08:45:07;8.20;;;2.63;;
12968;SDS011;6549;53.128;8.182;2023-07-13T08:47:52;11.23;;;3.03;;
12968;SDS011;6549;53.128;8.182;2023-07-13T08:50:57;6.72;;;1.98;;
12968;SDS011;6549;53.128;8.182;2023-07-13T08:54:09;6.60;;;2.28;;
12968;SDS011;6549;53.128;8.182;2023-07-13T08:57:21;5.22;;;2.50;;
12968;SDS011;6549;53.128;8.182;2023-07-13T09:00:31;5.35;;;2.30;;
12968;SDS011;6549;53.128;8.182;2023-07-13T09:03:57;4.70;;;1.92;;
12968;SDS011;6549;53.128;8.182;2023-07-13T09:07:27;8.43;;;2.30;;
12968;SDS011;6549;53.128;8.182;2023-07-13T09:10:41;7.30;;;2.28;;
12968;SDS011;6549;53.128;8.182;2023-07-13T09:17:20;6.20;;;2.25;;
12968;SDS011;6549;53.128;8.182;2023-07-13T09:23:32;4.90;;;2.05;;
12968;SDS011;6549;53.128;8.182;2023-07-13T09:26:32;5.10;;;2.10;;
12968;SDS011;6549;53.128;8.182;2023-07-13T09:29:33;4.53;;;2.00;;
12968;SDS011;6549;53.128;8.182;2023-07-13T09:32:37;6.38;;;2.08;;
12968;SDS011;6549;53.128;8.182;2023-07-13T09:35:39;6.75;;;2.20;;
12968;SDS011;6549;53.128;8.182;2023-07-13T09:38:39;6.47;;;2.30;;
12968;SDS011;6549;53.128;8.182;2023-07-13T09:44:59;6.13;;;2.58;;
12968;SDS011;6549;53.128;8.182;2023-07-13T09:48:07;7.13;;;2.35;;
12968;SDS011;6549;53.128;8.182;2023-07-13T09:51:13;8.43;;;4.00;;
12968;SDS011;6549;53.128;8.182;2023-07-13T09:54:18;6.90;;;2.22;;
12968;SDS011;6549;53.128;8.182;2023-07-13T09:57:25;5.22;;;2.20;;
12968;SDS011;6549;53.128;8.182;2023-07-13T10:00:28;5.57;;;2.10;;
12968;SDS011;6549;53.128;8.182;2023-07-13T10:03:34;4.40;;;2.13;;
12968;SDS011;6549;53.128;8.182;2023-07-13T10:06:38;3.53;;;1.92;;
12968;SDS011;6549;53.128;8.182;2023-07-13T10:09:40;3.72;;;2.00;;
12968;SDS011;6549;53.128;8.182;2023-07-13T10:12:41;6.15;;;2.20;;
12968;SDS011;6549;53.128;8.182;2023-07-13T10:15:41;5.35;;;2.38;;
12968;SDS011;6549;53.128;8.182;2023-07-13T10:24:55;3.40;;;1.80;;
12968;SDS011;6549;53.128;8.182;2023-07-13T10:28:03;2.97;;;1.90;;
12968;SDS011;6549;53.128;8.182;2023-07-13T10:31:12;5.10;;;2.10;;
12968;SDS011;6549;53.128;8.182;2023-07-13T10:34:14;5.63;;;2.25;;
12968;SDS011;6549;53.128;8.182;2023-07-13T10:37:16;6.10;;;2.50;;
12968;SDS011;6549;53.128;8.182;2023-07-13T10:40:34;4.75;;;2.53;;
12968;SDS011;6549;53.128;8.182;2023-07-13T10:43:42;7.15;;;2.80;;
12968;SDS011;6549;53.128;8.182;2023-07-13T10:46:44;7.30;;;2.90;;
12968;SDS011;6549;53.128;8.182;2023-07-13T10:49:45;10.25;;;3.00;;
12968;SDS011;6549;53.128;8.182;2023-07-13T10:52:51;5.25;;;2.47;;
12968;SDS011;6549;53.128;8.182;2023-07-13T10:55:56;3.38;;;1.42;;
12968;SDS011;6549;53.128;8.182;2023-07-13T10:59:01;4.28;;;1.20;;
12968;SDS011;6549;53.128;8.182;2023-07-13T11:11:36;3.20;;;1.35;;
12968;SDS011;6549;53.128;8.182;2023-07-13T11:17:54;3.58;;;1.20;;
12968;SDS011;6549;53.128;8.182;2023-07-13T11:21:16;4.00;;;1.80;;
12968;SDS011;6549;53.128;8.182;2023-07-13T11:24:28;2.60;;;1.65;;
12968;SDS011;6549;53.128;8.182;2023-07-13T11:27:44;3.28;;;1.60;;
12968;SDS011;6549;53.128;8.182;2023-07-13T11:31:34;1.88;;;1.67;;
12968;SDS011;6549;53.128;8.182;2023-07-13T11:34:15;2.50;;;1.70;;
12968;SDS011;6549;53.128;8.182;2023-07-13T11:37:17;2.55;;;1.90;;
12968;SDS011;6549;53.128;8.182;2023-07-13T11:40:20;2.55;;;1.80;;
12968;SDS011;6549;53.128;8.182;2023-07-13T11:43:26;5.22;;;2.10;;
12968;SDS011;6549;53.128;8.182;2023-07-13T11:46:27;4.22;;;2.17;;
12968;SDS011;6549;53.128;8.182;2023-07-13T11:49:29;4.00;;;2.35;;
12968;SDS011;6549;53.128;8.182;2023-07-13T11:52:33;2.65;;;2.00;;
12968;SDS011;6549;53.128;8.182;2023-07-13T11:55:37;3.72;;;2.10;;
12968;SDS011;6549;53.128;8.182;2023-07-13T11:58:38;3.03;;;1.75;;
12968;SDS011;6549;53.128;8.182;2023-07-13T12:01:43;6.13;;;2.10;;
12968;SDS011;6549;53.128;8.182;2023-07-13T12:04:45;2.28;;;1.83;;
12968;SDS011;6549;53.128;8.182;2023-07-13T12:07:47;3.28;;;1.98;;
12968;SDS011;6549;53.128;8.182;2023-07-13T12:10:48;1.75;;;1.55;;
12968;SDS011;6549;53.128;8.182;2023-07-13T12:13:55;2.63;;;1.70;;
12968;SDS011;6549;53.128;8.182;2023-07-13T12:16:56;2.47;;;1.50;;
12968;SDS011;6549;53.128;8.182;2023-07-13T12:19:56;2.65;;;1.65;;
12968;SDS011;6549;53.128;8.182;2023-07-13T12:22:57;2.75;;;1.63;;
12968;SDS011;6549;53.128;8.182;2023-07-13T12:25:58;1.65;;;1.40;;
12968;SDS011;6549;53.128;8.182;2023-07-13T12:29:01;2.00;;;1.60;;
12968;SDS011;6549;53.128;8.182;2023-07-13T12:32:08;2.15;;;1.50;;
12968;SDS011;6549;53.128;8.182;2023-07-13T12:35:13;2.03;;;1.60;;
12968;SDS011;6549;53.128;8.182;2023-07-13T12:38:16;1.92;;;1.50;;
12968;SDS011;6549;53.128;8.182;2023-07-13T12:41:16;3.40;;;1.70;;
12968;SDS011;6549;53.128;8.182;2023-07-13T12:44:24;2.22;;;1.70;;
12968;SDS011;6549;53.128;8.182;2023-07-13T12:47:28;2.58;;;1.67;;
12968;SDS011;6549;53.128;8.182;2023-07-13T12:50:30;2.95;;;1.80;;
12968;SDS011;6549;53.128;8.182;2023-07-13T12:53:39;1.95;;;1.67;;
12968;SDS011;6549;53.128;8.182;2023-07-13T12:56:41;2.97;;;1.60;;
12968;SDS011;6549;53.128;8.182;2023-07-13T12:59:42;3.67;;;1.85;;
12968;SDS011;6549;53.128;8.182;2023-07-13T13:02:42;2.90;;;1.38;;
12968;SDS011;6549;53.128;8.182;2023-07-13T13:05:42;3.00;;;1.60;;
12968;SDS011;6549;53.128;8.182;2023-07-13T13:08:43;2.55;;;1.70;;
12968;SDS011;6549;53.128;8.182;2023-07-13T13:11:43;2.20;;;1.50;;
12968;SDS011;6549;53.128;8.182;2023-07-13T13:14:44;3.33;;;1.80;;
12968;SDS011;6549;53.128;8.182;2023-07-13T13:17:45;2.13;;;1.67;;
12968;SDS011;6549;53.128;8.182;2023-07-13T13:20:46;2.20;;;1.52;;
12968;SDS011;6549;53.128;8.182;2023-07-13T13:23:46;3.22;;;1.65;;
12968;SDS011;6549;53.128;8.182;2023-07-13T13:26:47;2.20;;;1.70;;
12968;SDS011;6549;53.128;8.182;2023-07-13T13:32:52;2.85;;;1.90;;
12968;SDS011;6549;53.128;8.182;2023-07-13T13:35:52;4.45;;;1.80;;
12968;SDS011;6549;53.128;8.182;2023-07-13T13:38:52;3.63;;;2.22;;
12968;SDS011;6549;53.128;8.182;2023-07-13T13:41:53;3.95;;;2.78;;
12968;SDS011;6549;53.128;8.182;2023-07-13T13:44:54;3.22;;;2.22;;
12968;SDS011;6549;53.128;8.182;2023-07-13T13:47:56;5.13;;;2.40;;
12968;SDS011;6549;53.128;8.182;2023-07-13T13:50:57;6.55;;;2.35;;
12968;SDS011;6549;53.128;8.182;2023-07-13T13:53:59;4.88;;;2.50;;
12968;SDS011;6549;53.128;8.182;2023-07-13T13:56:59;4.25;;;2.22;;
12968;SDS011;6549;53.128;8.182;2023-07-13T13:59:59;3.80;;;2.00;;
12968;SDS011;6549;53.128;8.182;2023-07-13T14:03:00;3.92;;;2.22;;
12968;SDS011;6549;53.128;8.182;2023-07-13T14:06:00;5.50;;;2.25;;
12968;SDS011;6549;53.128;8.182;2023-07-13T14:09:01;3.45;;;1.95;;
12968;SDS011;6549;53.128;8.182;2023-07-13T14:12:02;2.93;;;1.90;;
12968;SDS011;6549;53.128;8.182;2023-07-13T14:15:03;3.40;;;2.03;;
12968;SDS011;6549;53.128;8.182;2023-07-13T14:18:04;5.10;;;2.20;;
12968;SDS011;6549;53.128;8.182;2023-07-13T14:21:10;6.03;;;2.63;;
12968;SDS011;6549;53.128;8.182;2023-07-13T14:24:15;3.28;;;1.50;;
12968;SDS011;6549;53.128;8.182;2023-07-13T14:27:15;2.58;;;1.38;;
12968;SDS011;6549;53.128;8.182;2023-07-13T14:30:20;3.10;;;1.45;;
12968;SDS011;6549;53.128;8.182;2023-07-13T14:33:21;3.22;;;1.50;;
12968;SDS011;6549;53.128;8.182;2023-07-13T14:36:29;3.17;;;1.42;;
12968;SDS011;6549;53.128;8.182;2023-07-13T14:39:31;1.50;;;1.30;;
12968;SDS011;6549;53.128;8.182;2023-07-13T14:42:32;2.80;;;1.50;;
12968;SDS011;6549;53.128;8.182;2023-07-13T14:45:32;1.75;;;1.30;;
12968;SDS011;6549;53.128;8.182;2023-07-13T14:48:33;2.45;;;1.33;;
12968;SDS011;6549;53.128;8.182;2023-07-13T14:51:34;2.10;;;1.50;;
12968;SDS011;6549;53.128;8.182;2023-07-13T14:54:34;2.80;;;1.40;;
12968;SDS011;6549;53.128;8.182;2023-07-13T14:57:35;3.22;;;1.65;;
12968;SDS011;6549;53.128;8.182;2023-07-13T15:00:35;3.08;;;1.80;;
12968;SDS011;6549;53.128;8.182;2023-07-13T15:03:37;3.03;;;1.50;;
12968;SDS011;6549;53.128;8.182;2023-07-13T15:06:52;2.45;;;1.70;;
12968;SDS011;6549;53.128;8.182;2023-07-13T15:09:57;2.08;;;1.58;;
12968;SDS011;6549;53.128;8.182;2023-07-13T15:13:11;3.10;;;1.58;;
12968;SDS011;6549;53.128;8.182;2023-07-13T15:16:17;3.17;;;1.50;;
12968;SDS011;6549;53.128;8.182;2023-07-13T15:19:21;4.85;;;2.03;;
12968;SDS011;6549;53.128;8.182;2023-07-13T15:22:23;3.58;;;1.75;;
12968;SDS011;6549;53.128;8.182;2023-07-13T15:25:24;2.90;;;2.00;;
12968;SDS011;6549;53.128;8.182;2023-07-13T15:28:27;4.35;;;1.95;;
12968;SDS011;6549;53.128;8.182;2023-07-13T15:31:27;3.25;;;1.65;;
12968;SDS011;6549;53.128;8.182;2023-07-13T15:34:28;2.15;;;1.80;;
12968;SDS011;6549;53.128;8.182;2023-07-13T15:37:29;3.72;;;2.20;;
12968;SDS011;6549;53.128;8.182;2023-07-13T15:40:29;2.97;;;2.20;;
12968;SDS011;6549;53.128;8.182;2023-07-13T15:43:31;3.55;;;2.08;;
12968;SDS011;6549;53.128;8.182;2023-07-13T15:46:32;2.97;;;2.00;;
12968;SDS011;6549;53.128;8.182;2023-07-13T15:49:32;4.45;;;2.25;;
12968;SDS011;6549;53.128;8.182;2023-07-13T15:52:33;3.28;;;1.85;;
12968;SDS011;6549;53.128;8.182;2023-07-13T15:55:33;4.35;;;1.85;;
12968;SDS011;6549;53.128;8.182;2023-07-13T15:58:38;3.28;;;2.00;;
12968;SDS011;6549;53.128;8.182;2023-07-13T16:01:38;4.05;;;2.00;;
12968;SDS011;6549;53.128;8.182;2023-07-13T16:04:41;4.78;;;2.10;;
12968;SDS011;6549;53.128;8.182;2023-07-13T16:07:42;3.28;;;2.00;;
12968;SDS011;6549;53.128;8.182;2023-07-13T16:10:46;4.43;;;2.35;;
12968;SDS011;6549;53.128;8.182;2023-07-13T16:13:47;5.47;;;2.30;;
12968;SDS011;6549;53.128;8.182;2023-07-13T16:16:53;5.32;;;2.45;;
12968;SDS011;6549;53.128;8.182;2023-07-13T16:19:55;3.22;;;1.73;;
12968;SDS011;6549;53.128;8.182;2023-07-13T16:22:56;2.35;;;1.77;;
12968;SDS011;6549;53.128;8.182;2023-07-13T16:25:56;2.55;;;1.60;;
12968;SDS011;6549;53.128;8.182;2023-07-13T16:28:57;3.42;;;1.83;;
12968;SDS011;6549;53.128;8.182;2023-07-13T16:32:02;2.97;;;1.98;;
12968;SDS011;6549;53.128;8.182;2023-07-13T16:35:04;4.82;;;1.92;;
12968;SDS011;6549;53.128;8.182;2023-07-13T16:38:11;3.80;;;1.70;;
12968;SDS011;6549;53.128;8.182;2023-07-13T16:41:14;2.65;;;1.60;;
12968;SDS011;6549;53.128;8.182;2023-07-13T16:44:16;2.30;;;2.00;;
12968;SDS011;6549;53.128;8.182;2023-07-13T16:47:20;3.92;;;2.13;;
12968;SDS011;6549;53.128;8.182;2023-07-13T16:50:24;3.95;;;2.47;;
12968;SDS011;6549;53.128;8.182;2023-07-13T16:53:28;3.67;;;2.35;;
12968;SDS011;6549;53.128;8.182;2023-07-13T16:56:29;3.75;;;2.22;;
12968;SDS011;6549;53.128;8.182;2023-07-13T16:59:31;5.93;;;2.30;;
12968;SDS011;6549;53.128;8.182;2023-07-13T17:02:34;4.20;;;2.35;;
12968;SDS011;6549;53.128;8.182;2023-07-13T17:05:39;3.92;;;2.45;;
12968;SDS011;6549;53.128;8.182;2023-07-13T17:08:43;4.03;;;2.20;;
12968;SDS011;6549;53.128;8.182;2023-07-13T17:11:45;4.35;;;1.80;;
12968;SDS011;6549;53.128;8.182;2023-07-13T17:14:45;4.38;;;2.22;;
12968;SDS011;6549;53.128;8.182;2023-07-13T17:17:49;5.25;;;2.58;;
12968;SDS011;6549;53.128;8.182;2023-07-13T17:20:51;6.00;;;2.13;;
12968;SDS011;6549;53.128;8.182;2023-07-13T17:23:52;5.47;;;2.17;;
12968;SDS011;6549;53.128;8.182;2023-07-13T17:26:52;3.35;;;1.98;;
12968;SDS011;6549;53.128;8.182;2023-07-13T17:29:55;4.93;;;2.30;;
12968;SDS011;6549;53.128;8.182;2023-07-13T17:32:56;4.65;;;2.30;;
12968;SDS011;6549;53.128;8.182;2023-07-13T17:35:57;4.82;;;2.10;;
12968;SDS011;6549;53.128;8.182;2023-07-13T17:38:59;5.75;;;2.65;;
12968;SDS011;6549;53.128;8.182;2023-07-13T17:41:59;3.88;;;2.40;;
12968;SDS011;6549;53.128;8.182;2023-07-13T17:45:00;3.60;;;2.00;;
12968;SDS011;6549;53.128;8.182;2023-07-13T17:48:00;1.80;;;1.70;;
12968;SDS011;6549;53.128;8.182;2023-07-13T17:51:07;4.05;;;2.10;;
12968;SDS011;6549;53.128;8.182;2023-07-13T17:54:12;3.55;;;2.00;;
12968;SDS011;6549;53.128;8.182;2023-07-13T17:57:13;3.60;;;2.00;;
12968;SDS011;6549;53.128;8.182;2023-07-13T18:00:17;2.90;;;1.80;;
12968;SDS011;6549;53.128;8.182;2023-07-13T18:03:27;2.45;;;1.60;;
12968;SDS011;6549;53.128;8.182;2023-07-13T18:06:32;2.45;;;1.85;;
12968;SDS011;6549;53.128;8.182;2023-07-13T18:09:37;4.97;;;2.33;;
12968;SDS011;6549;53.128;8.182;2023-07-13T18:12:38;2.45;;;1.77;;
12968;SDS011;6549;53.128;8.182;2023-07-13T18:15:38;4.70;;;2.00;;
12968;SDS011;6549;53.128;8.182;2023-07-13T18:18:38;3.38;;;2.05;;
12968;SDS011;6549;53.128;8.182;2023-07-13T18:21:39;2.40;;;1.80;;
12968;SDS011;6549;53.128;8.182;2023-07-13T18:24:39;2.75;;;1.75;;
12968;SDS011;6549;53.128;8.182;2023-07-13T18:27:40;2.88;;;2.00;;
12968;SDS011;6549;53.128;8.182;2023-07-13T18:30:40;3.65;;;2.25;;
12968;SDS011;6549;53.128;8.182;2023-07-13T18:33:41;3.67;;;1.95;;
12968;SDS011;6549;53.128;8.182;2023-07-13T18:36:46;3.03;;;2.20;;
12968;SDS011;6549;53.128;8.182;2023-07-13T18:39:53;2.83;;;1.92;;
12968;SDS011;6549;53.128;8.182;2023-07-13T18:42:54;1.95;;;1.75;;
12968;SDS011;6549;53.128;8.182;2023-07-13T18:45:58;2.22;;;1.80;;
12968;SDS011;6549;53.128;8.182;2023-07-13T18:49:01;2.45;;;1.70;;
12968;SDS011;6549;53.128;8.182;2023-07-13T18:52:01;2.33;;;1.55;;
12968;SDS011;6549;53.128;8.182;2023-07-13T18:55:08;1.52;;;1.40;;
12968;SDS011;6549;53.128;8.182;2023-07-13T18:58:13;2.13;;;1.65;;
12968;SDS011;6549;53.128;8.182;2023-07-13T19:04:28;2.25;;;1.60;;
12968;SDS011;6549;53.128;8.182;2023-07-13T19:07:30;2.03;;;1.83;;
12968;SDS011;6549;53.128;8.182;2023-07-13T19:10:32;1.90;;;1.73;;